Time;durP1;ratioP1;P1;durP2;ratioP2;P2;SDS_P1;SDS_P2;PMS_P1;PMS_P2;Temp;Humidity;BMP_temperature;BMP_pressure;BME280_temperature;BME280_humidity;BME280_pressure;Samples;Min_cycle;Max_cycle;Signal;HPM_P1;HPM_P2
2022/03/11 00:01:46;;;;;;;;;;;7.40;43.30;;;;;;5041168;28;19937;-58
2022/03/11 00:04:11;;;;;;;;;;;7.40;43.20;;;;;;5040918;28;19909;-58
2022/03/11 00:06:37;;;;;;;;;;;7.30;43.30;;;;;;5039601;28;19909;-58
2022/03/11 00:09:03;;;;;;;;;;;7.30;43.20;;;;;;5039579;28;19916;-58
2022/03/11 00:11:28;;;;;;;;;;;7.40;43.40;;;;;;5038797;28;19909;-58
2022/03/11 00:13:54;;;;;;;;;;;7.40;43.20;;;;;;5037054;28;19974;-58
2022/03/11 00:16:20;;;;;;;;;;;7.30;43.50;;;;;;5037243;28;20285;-59
2022/03/11 00:18:46;;;;;;;;;;;7.30;43.50;;;;;;5037791;28;20357;-58
2022/03/11 00:21:12;;;;;;;;;;;7.30;43.40;;;;;;5036781;28;19910;-58
2022/03/11 00:23:41;;;;;;;;;;;7.20;43.30;;;;;;5037803;28;19916;-58
2022/03/11 00:26:07;;;;;;;;;;;7.20;43.50;;;;;;5040295;28;19921;-59
2022/03/11 00:28:32;;;;;;;;;;;7.20;43.40;;;;;;5042369;28;19909;-58
2022/03/11 00:30:58;;;;;;;;;;;7.20;43.20;;;;;;5043235;28;20380;-60
2022/03/11 00:33:23;;;;;;;;;;;7.10;43.30;;;;;;5042976;28;19909;-58
2022/03/11 00:35:49;;;;;;;;;;;7.10;43.10;;;;;;5042349;28;20006;-58
2022/03/11 00:38:14;;;;;;;;;;;7.20;43.10;;;;;;5041939;28;20347;-59
2022/03/11 00:40:40;;;;;;;;;;;7.20;42.80;;;;;;5043454;28;20395;-59
2022/03/11 00:43:06;;;;;;;;;;;7.20;42.80;;;;;;5043033;28;19937;-59
2022/03/11 00:45:31;;;;;;;;;;;7.10;43.00;;;;;;5040926;28;20008;-58
2022/03/11 00:47:57;;;;;;;;;;;7.20;42.80;;;;;;5039813;28;19917;-59
2022/03/11 00:50:23;;;;;;;;;;;7.10;42.80;;;;;;5040197;28;19916;-59
2022/03/11 00:52:48;;;;;;;;;;;7.30;42.50;;;;;;5041576;28;19909;-59
2022/03/11 00:55:14;;;;;;;;;;;7.20;42.30;;;;;;5043132;28;20014;-58
2022/03/11 00:57:40;;;;;;;;;;;7.10;42.50;;;;;;5045575;28;20503;-60
2022/03/11 01:00:06;;;;;;;;;;;7.00;42.70;;;;;;5047458;28;19909;-59
2022/03/11 01:02:32;;;;;;;;;;;7.00;42.70;;;;;;5047244;28;19917;-58
2022/03/11 01:04:58;;;;;;;;;;;7.00;42.70;;;;;;5046049;28;19909;-58
2022/03/11 01:07:23;;;;;;;;;;;7.00;42.70;;;;;;5044128;28;19921;-58
2022/03/11 01:09:49;;;;;;;;;;;7.00;42.70;;;;;;5044319;28;19910;-60
2022/03/11 01:12:15;;;;;;;;;;;7.00;42.40;;;;;;5041780;28;19932;-60
2022/03/11 01:14:40;;;;;;;;;;;7.10;42.20;;;;;;5041184;28;19920;-58
2022/03/11 01:17:06;;;;;;;;;;;7.20;41.80;;;;;;5039693;28;19953;-60
2022/03/11 01:19:31;;;;;;;;;;;7.20;41.70;;;;;;5041278;28;19924;-58
2022/03/11 01:21:57;;;;;;;;;;;7.00;41.80;;;;;;5039885;28;19913;-58
2022/03/11 01:24:23;;;;;;;;;;;7.00;42.10;;;;;;5039847;28;20364;-60
2022/03/11 01:26:48;;;;;;;;;;;7.00;41.90;;;;;;5039293;28;19921;-58
2022/03/11 01:29:14;;;;;;;;;;;7.00;41.80;;;;;;5039858;28;19909;-63
2022/03/11 01:31:39;;;;;;;;;;;7.00;41.90;;;;;;5040007;28;20020;-58
2022/03/11 01:34:05;;;;;;;;;;;7.00;41.80;;;;;;5040728;28;19909;-60
2022/03/11 01:36:30;;;;;;;;;;;7.00;41.60;;;;;;5039729;28;20012;-58
2022/03/11 01:38:56;;;;;;;;;;;7.00;41.70;;;;;;5041511;28;20272;-59
2022/03/11 01:41:22;;;;;;;;;;;7.00;41.80;;;;;;5040092;28;19932;-58
2022/03/11 01:43:54;;;;;;;;;;;7.00;41.60;;;;;;5040620;28;19916;-59
2022/03/11 01:46:19;;;;;;;;;;;6.90;41.90;;;;;;5044406;28;19909;-60
2022/03/11 01:48:45;;;;;;;;;;;6.90;41.90;;;;;;5043385;28;19909;-59
2022/03/11 01:51:10;;;;;;;;;;;6.80;41.90;;;;;;5041086;28;19909;-58
2022/03/11 01:53:36;;;;;;;;;;;6.90;41.70;;;;;;5039778;28;19910;-59
2022/03/11 01:56:02;;;;;;;;;;;6.90;41.60;;;;;;5035575;28;19909;-58
2022/03/11 01:58:28;;;;;;;;;;;6.80;41.40;;;;;;5035760;28;19976;-59
2022/03/11 02:00:54;;;;;;;;;;;6.70;41.70;;;;;;5036847;28;19952;-58
2022/03/11 02:03:19;;;;;;;;;;;6.80;41.60;;;;;;5034797;28;19971;-59
2022/03/11 02:05:45;;;;;;;;;;;6.70;41.70;;;;;;5034505;28;19909;-59
2022/03/11 02:08:10;;;;;;;;;;;6.80;41.60;;;;;;5034893;28;19913;-58
2022/03/11 02:10:36;;;;;;;;;;;6.70;41.50;;;;;;5034971;28;19909;-59
2022/03/11 02:13:05;;;;;;;;;;;6.70;41.60;;;;;;5034610;28;20000;-59
2022/03/11 02:15:32;;;;;;;;;;;6.70;42.00;;;;;;5034908;28;19920;-59
2022/03/11 02:17:57;;;;;;;;;;;6.60;42.20;;;;;;5034571;28;20347;-59
2022/03/11 02:20:23;;;;;;;;;;;6.70;42.20;;;;;;5034536;28;19947;-59
2022/03/11 02:22:50;;;;;;;;;;;6.70;42.00;;;;;;5034316;28;19945;-59
2022/03/11 02:25:15;;;;;;;;;;;6.80;41.90;;;;;;5034330;28;19955;-59
2022/03/11 02:27:46;;;;;;;;;;;6.80;42.30;;;;;;5034567;28;19910;-58
2022/03/11 02:30:13;;;;;;;;;;;6.80;41.90;;;;;;5034325;28;20280;-59
2022/03/11 02:32:39;;;;;;;;;;;6.80;41.60;;;;;;5034295;28;20323;-59
2022/03/11 02:35:05;;;;;;;;;;;6.90;41.40;;;;;;5034054;28;20008;-58
2022/03/11 02:37:31;;;;;;;;;;;6.80;41.40;;;;;;5034741;28;20284;-59
2022/03/11 02:39:56;;;;;;;;;;;6.70;41.50;;;;;;5034239;28;19913;-59
2022/03/11 02:42:22;;;;;;;;;;;6.70;42.10;;;;;;5034059;28;20361;-59
2022/03/11 02:44:47;;;;;;;;;;;6.80;41.20;;;;;;5034483;28;19909;-60
2022/03/11 02:47:13;;;;;;;;;;;6.70;41.00;;;;;;5034234;28;19909;-60
2022/03/11 02:49:39;;;;;;;;;;;6.70;41.00;;;;;;5033828;28;19915;-59
2022/03/11 02:52:04;;;;;;;;;;;6.80;40.80;;;;;;5034024;28;19936;-58
2022/03/11 02:54:30;;;;;;;;;;;6.70;40.90;;;;;;5033912;28;19913;-59
2022/03/11 02:56:55;;;;;;;;;;;6.70;41.20;;;;;;5033975;28;20369;-59
2022/03/11 02:59:21;;;;;;;;;;;6.60;40.90;;;;;;5033908;28;19917;-58
2022/03/11 03:01:47;;;;;;;;;;;6.60;40.80;;;;;;5033624;28;19916;-59
2022/03/11 03:04:13;;;;;;;;;;;6.70;40.70;;;;;;5033707;28;19941;-58
2022/03/11 03:06:39;;;;;;;;;;;6.70;40.80;;;;;;5034222;28;19909;-59
2022/03/11 03:09:05;;;;;;;;;;;6.80;40.70;;;;;;5037016;28;19924;-59
2022/03/11 03:11:30;;;;;;;;;;;6.80;40.90;;;;;;5036203;28;19909;-60
2022/03/11 03:13:56;;;;;;;;;;;6.80;40.80;;;;;;5035711;28;19909;-59
2022/03/11 03:16:22;;;;;;;;;;;6.90;40.60;;;;;;5035504;28;19918;-58
2022/03/11 03:18:47;;;;;;;;;;;6.80;40.70;;;;;;5035226;28;20003;-59
2022/03/11 03:21:13;;;;;;;;;;;6.80;40.80;;;;;;5034883;28;20382;-59
2022/03/11 03:23:39;;;;;;;;;;;6.70;41.20;;;;;;5033982;28;19909;-58
2022/03/11 03:26:04;;;;;;;;;;;6.70;41.20;;;;;;5033690;28;19925;-59
2022/03/11 03:28:30;;;;;;;;;;;6.70;41.10;;;;;;5033869;28;20357;-61
2022/03/11 03:30:55;;;;;;;;;;;6.70;41.00;;;;;;5033718;28;19972;-59
2022/03/11 03:33:21;;;;;;;;;;;6.60;41.00;;;;;;5033391;28;20368;-59
2022/03/11 03:35:46;;;;;;;;;;;6.60;41.10;;;;;;5033679;28;19915;-59
2022/03/11 03:38:12;;;;;;;;;;;6.60;41.20;;;;;;5033738;28;19913;-58
2022/03/11 03:40:38;;;;;;;;;;;6.50;41.10;;;;;;5033689;28;19909;-59
2022/03/11 03:43:03;;;;;;;;;;;6.40;41.50;;;;;;5033408;28;19913;-59
2022/03/11 03:45:30;;;;;;;;;;;6.30;41.60;;;;;;5033728;28;19910;-59
2022/03/11 03:47:56;;;;;;;;;;;6.50;41.60;;;;;;5033604;28;19909;-59
2022/03/11 03:50:21;;;;;;;;;;;6.50;41.20;;;;;;5033924;28;19916;-59
2022/03/11 03:52:47;;;;;;;;;;;6.40;41.10;;;;;;5033189;28;19916;-59
2022/03/11 03:55:13;;;;;;;;;;;6.60;41.20;;;;;;5034042;28;19963;-58
2022/03/11 03:57:38;;;;;;;;;;;6.60;41.00;;;;;;5032606;28;19917;-60
2022/03/11 04:00:05;;;;;;;;;;;6.50;41.10;;;;;;5033354;28;20276;-59
2022/03/11 04:02:32;;;;;;;;;;;6.40;41.00;;;;;;5032942;28;19913;-59
2022/03/11 04:04:57;;;;;;;;;;;6.50;40.80;;;;;;5033519;28;19913;-60
2022/03/11 04:07:23;;;;;;;;;;;6.60;40.40;;;;;;5033555;28;19916;-59
2022/03/11 04:09:48;;;;;;;;;;;6.60;39.80;;;;;;5033511;28;19956;-60
2022/03/11 04:12:14;;;;;;;;;;;6.60;40.20;;;;;;5033077;28;20000;-58
2022/03/11 04:14:40;;;;;;;;;;;6.60;40.00;;;;;;5035831;28;19909;-60
2022/03/11 04:17:05;;;;;;;;;;;6.70;39.60;;;;;;5036900;28;19972;-58
2022/03/11 04:19:31;;;;;;;;;;;6.60;39.60;;;;;;5035227;28;19946;-60
2022/03/11 04:21:56;;;;;;;;;;;6.60;40.40;;;;;;5036826;28;19909;-58
2022/03/11 04:24:23;;;;;;;;;;;6.70;39.90;;;;;;5036568;28;20029;-59
2022/03/11 04:26:49;;;;;;;;;;;6.70;39.70;;;;;;5036502;28;20037;-59
2022/03/11 04:29:14;;;;;;;;;;;6.90;39.60;;;;;;5036449;28;19909;-58
2022/03/11 04:31:40;;;;;;;;;;;7.00;39.20;;;;;;5036392;28;19909;-59
2022/03/11 04:34:06;;;;;;;;;;;7.00;38.90;;;;;;5036383;28;20024;-59
2022/03/11 04:36:40;;;;;;;;;;;6.90;39.00;;;;;;5036618;28;20341;-58
2022/03/11 04:39:06;;;;;;;;;;;6.80;38.50;;;;;;5036363;28;20361;-58
2022/03/11 04:41:33;;;;;;;;;;;6.70;38.80;;;;;;5036411;28;19915;-59
2022/03/11 04:43:58;;;;;;;;;;;6.80;38.20;;;;;;5037044;28;19948;-58
2022/03/11 04:46:24;;;;;;;;;;;6.90;38.00;;;;;;5040463;28;19909;-63
2022/03/11 04:48:49;;;;;;;;;;;6.90;38.60;;;;;;5040275;28;19909;-58
2022/03/11 04:51:15;;;;;;;;;;;7.00;38.10;;;;;;5040768;28;20357;-59
2022/03/11 04:53:41;;;;;;;;;;;7.00;38.10;;;;;;5041158;28;19915;-60
2022/03/11 04:56:06;;;;;;;;;;;7.00;37.70;;;;;;5039898;28;19916;-60
2022/03/11 04:58:32;;;;;;;;;;;7.10;37.70;;;;;;5035967;28;19913;-58
2022/03/11 05:00:57;;;;;;;;;;;7.00;37.30;;;;;;5036081;28;19959;-58
2022/03/11 05:03:23;;;;;;;;;;;7.00;37.20;;;;;;5035747;28;19955;-59
2022/03/11 05:05:49;;;;;;;;;;;6.90;37.90;;;;;;5035862;28;19916;-59
2022/03/11 05:08:14;;;;;;;;;;;6.80;37.10;;;;;;5035934;28;19909;-58
2022/03/11 05:10:40;;;;;;;;;;;6.60;37.60;;;;;;5035901;28;19909;-59
2022/03/11 05:13:06;;;;;;;;;;;6.70;37.70;;;;;;5035608;28;20339;-58
2022/03/11 05:15:31;;;;;;;;;;;6.60;37.20;;;;;;5035657;28;20007;-59
2022/03/11 05:17:57;;;;;;;;;;;6.70;37.40;;;;;;5035700;28;20008;-58
2022/03/11 05:20:22;;;;;;;;;;;6.80;36.80;;;;;;5035676;28;19941;-58
2022/03/11 05:22:49;;;;;;;;;;;6.90;36.80;;;;;;5035470;28;19909;-59
2022/03/11 05:25:14;;;;;;;;;;;7.00;37.00;;;;;;5034931;28;19922;-60
2022/03/11 05:27:40;;;;;;;;;;;7.00;37.10;;;;;;5035399;28;19921;-58
2022/03/11 05:30:06;;;;;;;;;;;6.90;36.80;;;;;;5035269;28;20382;-58
2022/03/11 05:32:32;;;;;;;;;;;7.00;37.30;;;;;;5035123;28;19916;-58
2022/03/11 05:34:57;;;;;;;;;;;6.80;36.70;;;;;;5035529;28;19910;-58
2022/03/11 05:37:23;;;;;;;;;;;6.80;36.70;;;;;;5035350;28;20284;-58
2022/03/11 05:39:49;;;;;;;;;;;6.80;36.80;;;;;;5035222;28;20335;-58
2022/03/11 05:42:14;;;;;;;;;;;6.70;36.50;;;;;;5035116;28;20395;-58
2022/03/11 05:44:40;;;;;;;;;;;6.70;36.50;;;;;;5034877;28;19909;-58
2022/03/11 05:47:05;;;;;;;;;;;6.90;36.20;;;;;;5035160;28;19909;-59
2022/03/11 05:49:32;;;;;;;;;;;6.90;36.20;;;;;;5034866;28;20306;-58
2022/03/11 05:51:57;;;;;;;;;;;6.90;35.80;;;;;;5034866;28;19913;-58
2022/03/11 05:54:23;;;;;;;;;;;6.90;35.70;;;;;;5035137;28;19971;-60
2022/03/11 05:56:54;;;;;;;;;;;6.90;35.30;;;;;;5034860;28;19916;-58
2022/03/11 05:59:20;;;;;;;;;;;7.00;35.50;;;;;;5034752;28;19917;-61
2022/03/11 06:01:46;;;;;;;;;;;6.80;35.10;;;;;;5035109;28;20428;-58
2022/03/11 06:04:11;;;;;;;;;;;6.70;35.50;;;;;;5034625;28;20009;-59
2022/03/11 06:06:37;;;;;;;;;;;6.70;35.70;;;;;;5034758;28;19909;-58
2022/03/11 06:09:03;;;;;;;;;;;6.70;35.70;;;;;;5034761;28;19916;-61
2022/03/11 06:11:29;;;;;;;;;;;6.70;35.20;;;;;;5034854;28;20004;-60
2022/03/11 06:13:54;;;;;;;;;;;6.80;35.10;;;;;;5034324;28;19909;-57
2022/03/11 06:16:20;;;;;;;;;;;6.80;34.80;;;;;;5034463;28;19910;-59
2022/03/11 06:18:45;;;;;;;;;;;6.70;35.10;;;;;;5034558;28;19971;-58
2022/03/11 06:21:11;;;;;;;;;;;6.70;35.10;;;;;;5034437;28;20382;-59
2022/03/11 06:23:37;;;;;;;;;;;6.70;34.80;;;;;;5034662;28;19916;-59
2022/03/11 06:26:03;;;;;;;;;;;6.70;34.70;;;;;;5034260;28;20013;-58
2022/03/11 06:28:29;;;;;;;;;;;6.70;34.70;;;;;;5034676;28;19910;-59
2022/03/11 06:30:54;;;;;;;;;;;6.70;34.80;;;;;;5034573;28;19964;-60
2022/03/11 06:33:23;;;;;;;;;;;6.70;34.70;;;;;;5034437;28;19920;-60
2022/03/11 06:35:48;;;;;;;;;;;6.70;34.40;;;;;;5034305;28;20268;-60
2022/03/11 06:38:14;;;;;;;;;;;6.70;35.00;;;;;;5034193;28;19924;-59
2022/03/11 06:40:40;;;;;;;;;;;6.70;34.60;;;;;;5034384;28;19916;-59
2022/03/11 06:43:05;;;;;;;;;;;6.70;34.30;;;;;;5034056;28;19909;-60
2022/03/11 06:45:31;;;;;;;;;;;6.80;34.30;;;;;;5034302;28;19975;-59
2022/03/11 06:47:57;;;;;;;;;;;6.80;34.10;;;;;;5034306;28;19909;-60
2022/03/11 06:50:22;;;;;;;;;;;6.80;33.90;;;;;;5034753;28;19910;-58
2022/03/11 06:52:48;;;;;;;;;;;6.80;34.00;;;;;;5034090;28;19963;-59
2022/03/11 06:55:14;;;;;;;;;;;6.70;34.10;;;;;;5033983;28;19909;-58
2022/03/11 06:57:39;;;;;;;;;;;6.80;34.00;;;;;;5033729;28;19916;-60
2022/03/11 07:00:06;;;;;;;;;;;6.80;34.40;;;;;;5033879;28;19913;-68
2022/03/11 07:02:32;;;;;;;;;;;7.00;37.60;;;;;;5033776;28;19909;-65
2022/03/11 07:04:57;;;;;;;;;;;7.90;50.30;;;;;;5033705;28;20012;-68
2022/03/11 07:07:23;;;;;;;;;;;8.30;38.70;;;;;;5033776;28;19913;-62
2022/03/11 07:09:49;;;;;;;;;;;8.40;36.70;;;;;;5034008;28;19913;-67
2022/03/11 07:12:14;;;;;;;;;;;7.90;34.10;;;;;;5033402;28;20422;-65
2022/03/11 07:14:41;;;;;;;;;;;7.90;34.20;;;;;;5033461;28;19909;-65
2022/03/11 07:17:07;;;;;;;;;;;8.10;36.50;;;;;;5033710;28;19955;-65
2022/03/11 07:19:34;;;;;;;;;;;7.90;33.70;;;;;;5033641;28;19921;-65
2022/03/11 07:22:00;;;;;;;;;;;8.00;36.10;;;;;;5033417;28;19916;-63
2022/03/11 07:24:26;;;;;;;;;;;8.20;33.80;;;;;;5033664;28;20383;-60
2022/03/11 07:26:52;;;;;;;;;;;7.80;31.30;;;;;;5031591;28;19968;-59
2022/03/11 07:29:17;;;;;;;;;;;7.50;32.30;;;;;;5033340;28;19909;-59
2022/03/11 07:31:43;;;;;;;;;;;7.30;32.50;;;;;;5033456;28;19909;-61
2022/03/11 07:34:09;;;;;;;;;;;7.20;33.00;;;;;;5033359;28;19916;-62
2022/03/11 07:36:34;;;;;;;;;;;7.20;32.80;;;;;;5033706;28;20368;-61
2022/03/11 07:39:01;;;;;;;;;;;7.10;33.40;;;;;;5032066;28;19925;-62
2022/03/11 07:41:27;;;;;;;;;;;7.10;33.90;;;;;;5032777;28;21670;-62
2022/03/11 07:43:52;;;;;;;;;;;7.10;33.60;;;;;;5033640;28;19905;-62
2022/03/11 07:46:23;;;;;;;;;;;7.10;33.60;;;;;;5034542;28;20332;-64
2022/03/11 07:48:49;;;;;;;;;;;7.00;33.50;;;;;;5037576;28;20032;-62
2022/03/11 07:51:15;;;;;;;;;;;7.00;33.90;;;;;;5036930;28;19969;-63
2022/03/11 07:53:40;;;;;;;;;;;7.00;33.80;;;;;;5041346;28;20001;-64
2022/03/11 07:56:07;;;;;;;;;;;7.10;34.00;;;;;;5039513;28;19979;-63
2022/03/11 07:58:33;;;;;;;;;;;7.20;34.10;;;;;;5037085;28;19924;-63
2022/03/11 08:00:58;;;;;;;;;;;7.20;33.30;;;;;;5036981;28;19909;-65
2022/03/11 08:03:24;;;;;;;;;;;7.10;33.20;;;;;;5036948;28;19956;-65
2022/03/11 08:05:49;;;;;;;;;;;7.00;33.30;;;;;;5036635;28;19916;-63
2022/03/11 08:08:15;;;;;;;;;;;7.00;33.40;;;;;;5036498;28;19967;-63
2022/03/11 08:10:45;;;;;;;;;;;7.10;33.70;;;;;;5036091;28;19909;-62
2022/03/11 08:13:14;;;;;;;;;;;7.00;33.50;;;;;;5036120;28;20160;-62
2022/03/11 08:15:40;;;;;;;;;;;7.00;34.00;;;;;;5035900;28;19910;-64
2022/03/11 08:18:05;;;;;;;;;;;7.00;34.00;;;;;;5035583;28;19924;-63
2022/03/11 08:20:31;;;;;;;;;;;7.00;34.10;;;;;;5035531;28;19927;-68
2022/03/11 08:23:02;;;;;;;;;;;7.10;33.90;;;;;;5035553;28;20254;-60
2022/03/11 08:25:31;;;;;;;;;;;7.20;34.30;;;;;;5035733;28;20358;-63
2022/03/11 08:27:57;;;;;;;;;;;7.30;33.80;;;;;;5035601;28;20292;-64
2022/03/11 08:30:27;;;;;;;;;;;7.30;33.50;;;;;;5035499;28;20004;-64
2022/03/11 08:32:53;;;;;;;;;;;7.30;33.50;;;;;;5033443;28;20000;-61
2022/03/11 08:35:19;;;;;;;;;;;7.30;33.70;;;;;;5036310;28;19987;-63
2022/03/11 08:37:45;;;;;;;;;;;7.40;33.70;;;;;;5035800;28;19909;-64
2022/03/11 08:40:11;;;;;;;;;;;7.40;34.10;;;;;;5036526;28;19920;-63
2022/03/11 08:42:37;;;;;;;;;;;7.30;34.00;;;;;;5035617;28;19941;-62
2022/03/11 08:45:07;;;;;;;;;;;7.40;34.10;;;;;;5035725;28;20312;-62
2022/03/11 08:47:32;;;;;;;;;;;7.30;34.30;;;;;;5035879;28;19909;-61
2022/03/11 08:49:58;;;;;;;;;;;7.40;34.50;;;;;;5035893;28;19963;-63
2022/03/11 08:52:28;;;;;;;;;;;7.50;34.10;;;;;;5034850;28;19919;-64
2022/03/11 08:54:54;;;;;;;;;;;7.60;34.90;;;;;;5035202;28;19909;-64
2022/03/11 08:57:19;;;;;;;;;;;7.60;35.00;;;;;;5035057;28;19916;-65
2022/03/11 08:59:45;;;;;;;;;;;7.70;35.00;;;;;;5034319;28;19924;-63
2022/03/11 09:02:13;;;;;;;;;;;7.60;34.60;;;;;;5034780;28;19917;-64
2022/03/11 09:04:38;;;;;;;;;;;7.50;34.30;;;;;;5035391;28;19909;-63
2022/03/11 09:07:04;;;;;;;;;;;7.70;34.00;;;;;;5035081;28;19956;-63
2022/03/11 09:09:32;;;;;;;;;;;7.70;33.90;;;;;;5035302;28;19915;-62
2022/03/11 09:11:58;;;;;;;;;;;7.70;34.00;;;;;;5034300;28;19913;-62
2022/03/11 09:14:23;;;;;;;;;;;7.70;33.70;;;;;;5031847;28;20376;-63
2022/03/11 09:16:49;;;;;;;;;;;7.80;33.50;;;;;;5034607;28;19909;-61
2022/03/11 09:19:15;;;;;;;;;;;7.80;34.20;;;;;;5034023;28;19924;-63
2022/03/11 09:21:41;;;;;;;;;;;7.80;33.90;;;;;;5034114;28;20409;-65
2022/03/11 09:24:06;;;;;;;;;;;7.90;33.60;;;;;;5034334;28;19913;-65
2022/03/11 09:26:32;;;;;;;;;;;7.80;33.90;;;;;;5034301;28;19921;-59
2022/03/11 09:28:58;;;;;;;;;;;7.70;33.90;;;;;;5034884;28;19916;-65
2022/03/11 09:31:23;;;;;;;;;;;7.80;33.50;;;;;;5034705;28;19916;-66
2022/03/11 09:33:49;;;;;;;;;;;7.80;33.10;;;;;;5035139;28;19909;-62
2022/03/11 09:36:15;;;;;;;;;;;7.90;32.90;;;;;;5034650;28;19974;-62
2022/03/11 09:38:40;;;;;;;;;;;7.80;33.20;;;;;;5034983;28;20062;-64
2022/03/11 09:41:07;;;;;;;;;;;7.80;33.50;;;;;;5034897;28;20392;-59
2022/03/11 09:43:33;;;;;;;;;;;7.80;33.00;;;;;;5034914;28;20360;-61
2022/03/11 09:45:58;;;;;;;;;;;7.90;33.20;;;;;;5034539;28;19913;-61
2022/03/11 09:48:24;;;;;;;;;;;7.90;33.00;;;;;;5034774;28;20007;-63
2022/03/11 09:50:50;;;;;;;;;;;7.80;32.90;;;;;;5034858;28;19913;-62
2022/03/11 09:53:15;;;;;;;;;;;7.80;32.90;;;;;;5034553;28;20085;-60
2022/03/11 09:55:42;;;;;;;;;;;7.90;33.10;;;;;;5035055;28;19913;-59
2022/03/11 09:58:07;;;;;;;;;;;7.90;33.40;;;;;;5034451;28;20276;-57
2022/03/11 10:00:33;;;;;;;;;;;8.00;33.50;;;;;;5034406;28;19913;-64
2022/03/11 10:02:59;;;;;;;;;;;8.00;33.70;;;;;;5034264;28;20286;-65
2022/03/11 10:05:42;;;;;;;;;;;8.00;33.40;;;;;;5034188;28;19913;-60
2022/03/11 10:08:08;;;;;;;;;;;8.10;33.40;;;;;;5034542;28;19909;-61
2022/03/11 10:10:35;;;;;;;;;;;8.10;33.10;;;;;;5034232;28;19909;-60
2022/03/11 10:13:01;;;;;;;;;;;8.00;33.60;;;;;;5034146;28;19919;-66
2022/03/11 10:15:27;;;;;;;;;;;7.80;33.90;;;;;;5028534;28;19909;-64
2022/03/11 10:17:53;;;;;;;;;;;7.80;33.90;;;;;;5031810;28;19913;-62
2022/03/11 10:20:19;;;;;;;;;;;8.00;34.10;;;;;;5034274;28;20261;-62
2022/03/11 10:22:45;;;;;;;;;;;8.10;34.30;;;;;;5032355;28;19944;-58
2022/03/11 10:25:11;;;;;;;;;;;8.10;34.00;;;;;;5033127;28;19945;-59
2022/03/11 10:27:55;;;;;;;;;;;8.10;34.00;;;;;;5033343;28;19913;-60
2022/03/11 10:30:21;;;;;;;;;;;8.20;34.60;;;;;;5033951;28;20384;-59
2022/03/11 10:32:51;;;;;;;;;;;8.10;35.70;;;;;;5032754;28;19916;-59
2022/03/11 10:35:20;;;;;;;;;;;8.10;36.20;;;;;;5014324;28;20373;-61
2022/03/11 10:38:03;;;;;;;;;;;8.20;41.10;;;;;;5014242;28;20357;-60
2022/03/11 10:40:33;;;;;;;;;;;8.30;41.60;;;;;;5013216;28;20254;-59
2022/03/11 10:43:08;;;;;;;;;;;8.30;39.40;;;;;;5014235;28;19917;-60
2022/03/11 10:45:57;;;;;;;;;;;8.20;40.40;;;;;;5014193;28;20426;-59
2022/03/11 10:48:44;;;;;;;;;;;8.20;35.70;;;;;;5005996;28;20303;-60
2022/03/11 10:51:14;;;;;;;;;;;8.20;41.10;;;;;;5013940;28;20395;-62
2022/03/11 10:53:40;;;;;;;;;;;8.20;36.50;;;;;;5014218;28;20353;-60
2022/03/11 10:56:07;;;;;;;;;;;8.10;40.40;;;;;;5014009;28;19997;-62
2022/03/11 10:58:32;;;;;;;;;;;8.10;37.70;;;;;;5013899;28;19923;-64
2022/03/11 11:00:58;;;;;;;;;;;8.10;37.30;;;;;;5014089;28;20328;-60
2022/03/11 11:03:24;;;;;;;;;;;8.20;36.70;;;;;;5014294;28;19956;-59
2022/03/11 11:05:50;;;;;;;;;;;8.30;41.40;;;;;;5032921;28;20360;-60
2022/03/11 11:08:17;;;;;;;;;;;8.30;41.20;;;;;;5033165;28;20319;-60
2022/03/11 11:10:43;;;;;;;;;;;8.30;38.00;;;;;;5033186;28;19909;-59
2022/03/11 11:13:09;;;;;;;;;;;8.40;42.30;;;;;;5033004;28;19915;-63
2022/03/11 11:15:36;;;;;;;;;;;8.40;38.60;;;;;;5033232;28;19915;-61
2022/03/11 11:18:06;;;;;;;;;;;8.40;39.30;;;;;;5033833;28;19917;-61
2022/03/11 11:20:32;;;;;;;;;;;8.50;40.90;;;;;;5033442;28;20437;-68
2022/03/11 11:23:00;;;;;;;;;;;8.40;37.50;;;;;;5035498;28;19909;-60
2022/03/11 11:25:25;;;;;;;;;;;8.20;37.50;;;;;;5037479;28;19967;-59
2022/03/11 11:27:57;;;;;;;;;;;8.30;38.00;;;;;;5037790;28;19920;-61
2022/03/11 11:30:24;;;;;;;;;;;8.30;42.40;;;;;;5035331;28;19916;-65
2022/03/11 11:32:55;;;;;;;;;;;8.40;42.90;;;;;;5036932;28;20272;-64
2022/03/11 11:35:28;;;;;;;;;;;8.30;38.90;;;;;;5037118;28;20016;-75
2022/03/11 11:37:55;;;;;;;;;;;8.30;39.60;;;;;;5037050;28;20419;-69
2022/03/11 11:40:22;;;;;;;;;;;8.40;40.90;;;;;;5037191;28;20273;-66
2022/03/11 11:43:06;;;;;;;;;;;8.30;37.40;;;;;;5037789;28;19909;-66
2022/03/11 11:45:47;;;;;;;;;;;8.40;38.70;;;;;;5037797;28;19979;-65
2022/03/11 11:48:31;;;;;;;;;;;8.30;38.60;;;;;;5037643;28;20015;-68
2022/03/11 11:50:58;;;;;;;;;;;8.40;38.40;;;;;;5037468;28;19909;-63
2022/03/11 11:53:37;;;;;;;;;;;8.40;38.90;;;;;;5036660;28;19971;-61
2022/03/11 11:56:21;;;;;;;;;;;8.40;40.30;;;;;;5036528;28;19916;-65
2022/03/11 11:58:51;;;;;;;;;;;8.40;37.90;;;;;;5036502;28;19917;-71
2022/03/11 12:01:35;;;;;;;;;;;8.50;38.60;;;;;;5036432;28;20000;-70
2022/03/11 12:04:20;;;;;;;;;;;8.50;38.90;;;;;;5036416;28;19917;-72
2022/03/11 12:06:58;;;;;;;;;;;8.50;37.20;;;;;;5036586;28;20007;-70
2022/03/11 12:09:42;;;;;;;;;;;8.50;39.30;;;;;;5036533;28;19916;-68
2022/03/11 12:12:07;;;;;;;;;;;8.60;40.20;;;;;;5036309;28;19913;-69
2022/03/11 12:14:33;;;;;;;;;;;8.60;37.70;;;;;;5036204;28;19909;-67
2022/03/11 12:17:03;;;;;;;;;;;8.60;37.60;;;;;;5036252;28;19909;-64
2022/03/11 12:19:36;;;;;;;;;;;8.70;37.50;;;;;;5035996;28;20380;-64
2022/03/11 12:22:20;;;;;;;;;;;8.70;38.20;;;;;;5036155;28;20221;-64
2022/03/11 12:24:56;;;;;;;;;;;8.70;39.20;;;;;;5036072;28;19909;-63
2022/03/11 12:27:40;;;;;;;;;;;8.80;37.00;;;;;;5036113;28;19967;-65
2022/03/11 12:30:10;;;;;;;;;;;8.50;36.80;;;;;;5036613;28;19909;-65
2022/03/11 12:32:38;;;;;;;;;;;8.50;38.10;;;;;;5036020;28;19909;-63
2022/03/11 12:35:04;;;;;;;;;;;8.50;37.30;;;;;;5034661;28;19909;-63
2022/03/11 12:37:31;;;;;;;;;;;8.50;38.30;;;;;;5035800;28;20300;-62
2022/03/11 12:39:57;;;;;;;;;;;8.50;37.10;;;;;;5037517;28;19917;-63
2022/03/11 12:42:39;;;;;;;;;;;8.40;38.20;;;;;;5040313;28;19936;-63
2022/03/11 12:45:06;;;;;;;;;;;8.40;39.20;;;;;;5039844;28;19909;-65
2022/03/11 12:47:37;;;;;;;;;;;8.20;37.90;;;;;;5039087;28;19913;-65
2022/03/11 12:50:04;;;;;;;;;;;8.30;38.10;;;;;;5039964;28;19933;-64
2022/03/11 12:52:39;;;;;;;;;;;8.40;38.50;;;;;;5040931;28;19909;-66
2022/03/11 12:55:20;;;;;;;;;;;8.40;38.40;;;;;;5034571;28;19967;-66
2022/03/11 12:57:50;;;;;;;;;;;8.50;37.90;;;;;;5031072;28;19914;-66
2022/03/11 13:00:19;;;;;;;;;;;8.20;38.60;;;;;;5030491;28;20005;-63
2022/03/11 13:02:45;;;;;;;;;;;8.20;39.10;;;;;;5032506;28;19909;-63
2022/03/11 13:05:21;;;;;;;;;;;8.20;38.70;;;;;;5033846;28;19917;-61
2022/03/11 13:07:47;;;;;;;;;;;8.00;38.70;;;;;;5034831;28;19909;-63
2022/03/11 13:10:24;;;;;;;;;;;7.90;38.90;;;;;;5032693;28;19913;-62
2022/03/11 13:12:54;;;;;;;;;;;8.00;39.20;;;;;;5034406;28;19963;-67
2022/03/11 13:15:26;;;;;;;;;;;8.30;39.10;;;;;;5034527;28;19932;-65
2022/03/11 13:18:11;;;;;;;;;;;8.40;37.80;;;;;;5034435;28;19967;-61
2022/03/11 13:20:38;;;;;;;;;;;8.20;38.10;;;;;;5034083;28;19913;-62
2022/03/11 13:23:08;;;;;;;;;;;8.10;37.90;;;;;;5034155;28;19913;-61
2022/03/11 13:25:34;;;;;;;;;;;8.20;37.50;;;;;;5032807;28;19924;-63
2022/03/11 13:28:00;;;;;;;;;;;8.10;38.40;;;;;;5034243;28;20289;-64
2022/03/11 13:30:36;;;;;;;;;;;8.20;38.20;;;;;;5034028;28;20000;-64
2022/03/11 13:33:11;;;;;;;;;;;8.10;38.10;;;;;;5034046;28;19917;-63
2022/03/11 13:35:37;;;;;;;;;;;8.10;38.20;;;;;;5033741;28;19955;-63
2022/03/11 13:38:02;;;;;;;;;;;8.10;38.20;;;;;;5031841;28;19919;-63
2022/03/11 13:40:28;;;;;;;;;;;8.30;37.80;;;;;;5033818;28;19916;-64
2022/03/11 13:42:54;;;;;;;;;;;8.50;37.60;;;;;;5029939;28;19910;-64
2022/03/11 13:45:25;;;;;;;;;;;8.30;37.80;;;;;;5032510;28;20249;-64
2022/03/11 13:48:04;;;;;;;;;;;8.50;38.10;;;;;;5032447;28;19913;-68
2022/03/11 13:50:30;;;;;;;;;;;8.50;37.60;;;;;;5032068;28;19909;-62
2022/03/11 13:52:57;;;;;;;;;;;8.30;37.50;;;;;;5032347;28;20292;-63
2022/03/11 13:55:36;;;;;;;;;;;8.40;37.80;;;;;;5032270;28;19909;-63
2022/03/11 13:58:14;;;;;;;;;;;8.50;37.90;;;;;;5031798;28;19933;-62
2022/03/11 14:00:39;;;;;;;;;;;8.70;38.70;;;;;;5031670;28;19913;-64
2022/03/11 14:03:15;;;;;;;;;;;8.80;37.30;;;;;;5030173;28;19909;-60
2022/03/11 14:05:41;;;;;;;;;;;8.90;36.70;;;;;;5033073;28;19909;-60
2022/03/11 14:08:07;;;;;;;;;;;8.90;37.20;;;;;;5033081;28;20380;-59
2022/03/11 14:10:36;;;;;;;;;;;9.00;38.00;;;;;;5032650;28;19996;-62
2022/03/11 14:13:04;;;;;;;;;;;9.10;36.90;;;;;;5032712;28;19913;-61
2022/03/11 14:15:40;;;;;;;;;;;9.20;35.30;;;;;;5032457;28;19931;-61
2022/03/11 14:18:10;;;;;;;;;;;9.10;35.40;;;;;;5032380;28;20407;-62
2022/03/11 14:20:36;;;;;;;;;;;9.20;36.80;;;;;;5032929;28;20281;-62
2022/03/11 14:23:02;;;;;;;;;;;9.20;36.20;;;;;;5032601;28;19917;-61
2022/03/11 14:25:28;;;;;;;;;;;9.30;36.30;;;;;;5032278;28;19921;-62
2022/03/11 14:27:53;;;;;;;;;;;9.40;36.00;;;;;;5032550;28;19920;-64
2022/03/11 14:30:19;;;;;;;;;;;9.40;36.40;;;;;;5032723;28;20564;-65
2022/03/11 14:32:44;;;;;;;;;;;9.50;37.70;;;;;;5032568;28;19913;-62